sensor_id;sensor_type;location;lat;lon;timestamp;P1;durP1;ratioP1;P2;durP2;ratioP2
62788;SDS011;48826;42.016;21.454;2022-12-10T22:17:44;3.97;;;2.20;;
62788;SDS011;48826;42.016;21.454;2022-12-10T22:20:09;3.17;;;2.30;;
62788;SDS011;48826;42.016;21.454;2022-12-10T22:22:35;4.80;;;1.90;;
62788;SDS011;48826;42.016;21.454;2022-12-10T22:25:01;2.30;;;2.10;;
62788;SDS011;48826;42.016;21.454;2022-12-10T22:27:29;3.10;;;2.00;;
62788;SDS011;48826;42.016;21.454;2022-12-10T22:29:57;2.20;;;2.00;;
62788;SDS011;48826;42.016;21.454;2022-12-10T22:32:24;2.80;;;2.00;;
62788;SDS011;48826;42.016;21.454;2022-12-10T22:34:50;2.47;;;1.73;;
62788;SDS011;48826;42.016;21.454;2022-12-10T22:37:15;4.30;;;2.23;;
62788;SDS011;48826;42.016;21.454;2022-12-10T22:39:41;4.03;;;2.00;;
62788;SDS011;48826;42.016;21.454;2022-12-10T22:42:07;3.97;;;1.93;;
62788;SDS011;48826;42.016;21.454;2022-12-10T22:44:32;2.27;;;2.07;;
62788;SDS011;48826;42.016;21.454;2022-12-10T22:46:58;2.30;;;1.87;;
62788;SDS011;48826;42.016;21.454;2022-12-10T22:49:24;3.50;;;2.07;;
62788;SDS011;48826;42.016;21.454;2022-12-10T22:51:50;1.87;;;1.50;;
62788;SDS011;48826;42.016;21.454;2022-12-10T22:54:15;1.43;;;1.33;;
62788;SDS011;48826;42.016;21.454;2022-12-10T22:56:41;4.10;;;1.87;;
62788;SDS011;48826;42.016;21.454;2022-12-10T22:59:06;3.37;;;1.70;;
62788;SDS011;48826;42.016;21.454;2022-12-10T23:01:32;3.10;;;1.73;;
62788;SDS011;48826;42.016;21.454;2022-12-10T23:03:57;3.07;;;1.70;;
62788;SDS011;48826;42.016;21.454;2022-12-10T23:06:23;2.30;;;1.70;;
62788;SDS011;48826;42.016;21.454;2022-12-10T23:08:50;4.90;;;2.10;;
62788;SDS011;48826;42.016;21.454;2022-12-10T23:11:15;2.27;;;2.07;;
62788;SDS011;48826;42.016;21.454;2022-12-10T23:13:41;4.63;;;2.00;;
62788;SDS011;48826;42.016;21.454;2022-12-10T23:16:09;5.43;;;2.97;;
62788;SDS011;48826;42.016;21.454;2022-12-10T23:18:37;3.70;;;2.43;;
62788;SDS011;48826;42.016;21.454;2022-12-10T23:21:03;4.30;;;2.37;;
62788;SDS011;48826;42.016;21.454;2022-12-10T23:23:36;2.97;;;2.17;;
62788;SDS011;48826;42.016;21.454;2022-12-10T23:26:02;3.53;;;1.90;;
62788;SDS011;48826;42.016;21.454;2022-12-10T23:28:27;2.30;;;2.00;;
62788;SDS011;48826;42.016;21.454;2022-12-10T23:30:54;5.90;;;2.27;;
62788;SDS011;48826;42.016;21.454;2022-12-10T23:33:20;2.87;;;2.30;;
62788;SDS011;48826;42.016;21.454;2022-12-10T23:35:46;7.17;;;3.30;;
62788;SDS011;48826;42.016;21.454;2022-12-10T23:38:11;5.70;;;3.77;;
62788;SDS011;48826;42.016;21.454;2022-12-10T23:40:43;7.30;;;3.80;;
62788;SDS011;48826;42.016;21.454;2022-12-10T23:43:09;5.97;;;3.60;;
62788;SDS011;48826;42.016;21.454;2022-12-10T23:45:38;7.13;;;4.27;;
62788;SDS011;48826;42.016;21.454;2022-12-10T23:48:07;8.43;;;4.23;;
62788;SDS011;48826;42.016;21.454;2022-12-10T23:50:33;4.83;;;3.83;;
62788;SDS011;48826;42.016;21.454;2022-12-10T23:52:59;4.00;;;3.60;;
62788;SDS011;48826;42.016;21.454;2022-12-10T23:55:25;4.80;;;4.20;;
62788;SDS011;48826;42.016;21.454;2022-12-10T23:57:51;5.57;;;3.93;;
